Woodford, Illinois
Current Conditions -  °F | °C
As of 5:55 PM on Saturday 22 Nov 2014 (Local Time) from KC75 Reporting Station
Overcast Overcast  
Wind Chill: 54°   Ceiling: 4100
Heat Index: 54°   Visibility: 10mi
Dew Point: 46°   Wind: 9mph
Humidity: 73%   Direction: 200°SSW
Pressure: 29.87"   Gusts: NA
Location:  40.8848°N, 89.0396°W
Report Text: KC75 222355Z AUTO 20008KT 10SM SCT029 OVC041 12/08 A2987 RMK AO2 T01230076 10130 20092
Loading
Personal Weather Stations






























Interactive Weather Map New forecast layout! Learn more

10-Day Weather Forecast

Advertisements
Track Severe Weather on mobile